Αναφορές METAR Αεροδρομίων

 

LGTS - THESSALONIKI - GREECE
Ενημερώθηκε: 17/11/2018 02:20
Μερικώς νεφελώδης
Μερικώς νεφελώδης
 Ανεμος από ΑΝΑ
Ανεμος: ΑΝΑ 15 km/h
Θερμοκρασία: 10°C
Wind Chill: 8°C
Σημ. Δρόσου: 0°C
Υγρασία: 50%
Βαρόμετρο: 1024 hPa
Clouds: Μερικώς νεφελώδης
Visibility: 10 km
Cloud details: Μερικώς νεφελώδης 610 m
2018/11/17 00:20 LGTS 170020Z 11008KT 9999 SCT020 10/00 Q1024 NOSIG
LGLR - LARTISA - GREECE
Ενημερώθηκε: 17/11/2018 01:50
Ασθενής βροχή, Σχεδόν νεφελώδης
Ασθενής βροχή, Σχεδόν νεφελώδης
 Ανεμος από ΑΝΑ
Ανεμος: ΑΝΑ 9 km/h
Θερμοκρασία: 8°C
Wind Chill: 6°C
Σημ. Δρόσου: 6°C
Υγρασία: 87%
Βαρόμετρο: 1023 hPa
Περίληψη: Ασθενής βροχή
Clouds: Σχεδόν νεφελώδης
Visibility: 10 km
Cloud details: Αραιές Νεφώσεις 457 m
Μερικώς νεφελώδης 762 m
Σχεδόν νεφελώδης 2438 m
2018/11/16 23:50 LGLR 162350Z 11005KT 9999 -RA FEW015 SCT025 BKN080 08/06 Q1023 BLU
 
LGKZ - KOZANI - GREECE
Ενημερώθηκε: 16/11/2018 13:50
NOT Current
Συννεφιά
Συννεφιά
 Ανεμος από Ν
Ανεμος: Ν 11 km/h
Θερμοκρασία: 6°C
Wind Chill: 4°C
Σημ. Δρόσου: 1°C
Υγρασία: 71%
Βαρόμετρο: 1023 hPa
Clouds: Συννεφιά
Visibility: 9 km
Cloud details: Αραιές Νεφώσεις 610 m
Σχεδόν νεφελώδης 762 m
Συννεφιά 1829 m
2018/11/16 11:50 LGKZ 161150Z 17006KT 9000 FEW020 BKN025 OVC060 06/01 Q1023
LGKV - KAVALA - GREECE
Ενημερώθηκε: 17/11/2018 01:50
Αραιές Νεφώσεις
Αραιές Νεφώσεις
 Ανεμος από ΑΒΑ
Ανεμος: ΑΒΑ 13 km/h
Θερμοκρασία: 5°C
Wind Chill: 2°C
Σημ. Δρόσου: -2°C
Υγρασία: 61%
Βαρόμετρο: 1026 hPa
Clouds: Αραιές Νεφώσεις
Visibility: 10 km
Cloud details: Αραιές Νεφώσεις 762 m
2018/11/16 23:50 LGKV 162350Z 06007KT 9999 FEW025 05/M02 Q1026
 
LGIO - IOANNINA - GREECE
Ενημερώθηκε: 16/11/2018 21:20
NOT Current
Light drizzle, Σχεδόν νεφελώδης
Light drizzle, Σχεδόν νεφελώδης
 Ανεμος από varies
Ανεμος: varies 0 km/h
Θερμοκρασία: 6°C
Σημ. Δρόσου: 5°C
Υγρασία: 93%
Βαρόμετρο: 1019 hPa
Περίληψη: Light Drizzle
Clouds: Σχεδόν νεφελώδης
Visibility: 10 km
Cloud details: Αραιές Νεφώσεις 457 m
Σχεδόν νεφελώδης 914 m
Σχεδόν νεφελώδης 1829 m
2018/11/16 19:20 LGIO 161920Z /////KT 9999 -DZ FEW015 BKN030 BKN060 06/05 Q1019
LGBL - BOLOS - GREECE
Ενημερώθηκε: 17/11/2018 01:50
Σχεδόν νεφελώδης
Σχεδόν νεφελώδης
 Ανεμος από Α
Ανεμος: Α 35 km/h
Θερμοκρασία: 12°C
Σημ. Δρόσου: 5°C
Υγρασία: 63%
Βαρόμετρο: 1022 hPa
Clouds: Σχεδόν νεφελώδης
Visibility: 10 km
Cloud details: Μερικώς νεφελώδης 914 m
Σχεδόν νεφελώδης 2438 m
2018/11/16 23:50 LGBL 162350Z 09019KT 9999 SCT030 BKN080 12/05 Q1022
 
LGMT - MITILINI - GREECE
Ενημερώθηκε: 16/11/2018 21:50
NOT Current
Αραιές Νεφώσεις
Αραιές Νεφώσεις
 Ανεμος από ΑΒΑ
Ανεμος: ΑΒΑ 19 km/h
Θερμοκρασία: 11°C
Σημ. Δρόσου: 7°C
Υγρασία: 77%
Βαρόμετρο: 1024 hPa
Clouds: Αραιές Νεφώσεις
Visibility: 10 km
Cloud details: Αραιές Νεφώσεις 762 m
2018/11/16 19:50 LGMT 161950Z 07010KT 030V110 9999 FEW025 11/07 Q1024
LGAV - ATHENS - GREECE
Ενημερώθηκε: 17/11/2018 02:20
Drizzle, Μερικώς νεφελώδης
Drizzle, Μερικώς νεφελώδης
 Ανεμος από ΒΑ
Ανεμος: ΒΑ 28 km/h
Θερμοκρασία: 12°C
Σημ. Δρόσου: 6°C
Υγρασία: 67%
Βαρόμετρο: 1021 hPa
Περίληψη: Drizzle
Clouds: Μερικώς νεφελώδης
Visibility: 10 km
Cloud details: Μερικώς νεφελώδης 914 m
2018/11/17 00:20 LGAV 170020Z 05015KT 9999 DZ SCT030 12/06 Q1021 NOSIG
 
LGRP - RODOS - GREECE
Ενημερώθηκε: 17/11/2018 02:20
Μερικώς νεφελώδης
Μερικώς νεφελώδης
 Ανεμος από varies
Ανεμος: varies 4 km/h
Θερμοκρασία: 17°C
Σημ. Δρόσου: 6°C
Υγρασία: 49%
Βαρόμετρο: 1019 hPa
Clouds: Μερικώς νεφελώδης
Visibility: 10 km
Cloud details: Μερικώς νεφελώδης 549 m
Μερικώς νεφελώδης 610 m
2018/11/17 00:20 LGRP 170020Z VRB02KT 9999 SCT018 SCT020 17/06 Q1019 NOSIG
LGIR - HRAKLIO/KRITI - GREECE
Ενημερώθηκε: 17/11/2018 02:20
Ασθενής βροχή, Σχεδόν νεφελώδης
Ασθενής βροχή, Σχεδόν νεφελώδης
 Ανεμος από ΔΝΔ
Ανεμος: ΔΝΔ 7 km/h
Θερμοκρασία: 13°C
Σημ. Δρόσου: 12°C
Υγρασία: 94%
Βαρόμετρο: 1019 hPa
Περίληψη: Ασθενής βροχή
Clouds: Σχεδόν νεφελώδης
Visibility: 10 km
Cloud details: Αραιές Νεφώσεις 427 m
Σχεδόν νεφελώδης 610 m
Σχεδόν νεφελώδης 2438 m
2018/11/17 00:20 LGIR 170020Z 25004KT 9999 -RA FEW014 BKN020 BKN080 13/12 Q1019 NOSIG
 
LGMK - MIKONOS - GREECE
Ενημερώθηκε: 16/11/2018 19:50
NOT Current
Μερικώς νεφελώδης
Μερικώς νεφελώδης
 Ανεμος από ΒΒΑ
Ανεμος: ΒΒΑ 13 km/h
Θερμοκρασία: 12°C
Σημ. Δρόσου: 8°C
Υγρασία: 77%
Βαρόμετρο: 1021 hPa
Clouds: Μερικώς νεφελώδης
Visibility: 10 km
Cloud details: Μερικώς νεφελώδης 762 m
2018/11/16 17:50 LGMK 161750Z 03007KT 9999 SCT025 12/08 Q1021
LGKR - KERKIRA - GREECE
Ενημερώθηκε: 17/11/2018 02:20
Σχεδόν νεφελώδης
Σχεδόν νεφελώδης
 Ανεμος από ΑΝΑ
Ανεμος: ΑΝΑ 20 km/h
Θερμοκρασία: 12°C
Σημ. Δρόσου: 10°C
Υγρασία: 88%
Βαρόμετρο: 1017 hPa
Clouds: Σχεδόν νεφελώδης
Visibility: 10 km
Cloud details: Μερικώς νεφελώδης 549 m
Μερικώς νεφελώδης 762 m
Σχεδόν νεφελώδης 2134 m
2018/11/17 00:20 LGKR 170020Z 11011KT 9999 SCT018 SCT025 BKN070 12/10 Q1017 NOSIG